Terminal Aerodrome Forecast
Issued by NWS Blacksburg, VA

Home | Current Version | Previous Version | Text Only | Print | Product List | Glossary On
Versions: 1 2 3 4 5 6 7 8 9 10 11 12 13 14 15 16 17 18 19 20 21 22 23 24 25 26 27 28 29 30 31 32 33
000
FTUS41 KRNK 220540
TAFROA
TAF
KROA 220540Z 2206/2306 28007KT P6SM SCT035 BKN100
      TEMPO 2211/2214 6SM -SHRA BKN035 OVC100
     FM221900 31008KT P6SM VCTS SCT050CB OVC120
     FM230000 29005KT P6SM SCT090 OVC250=

USA.gov is the U.S. government's official web portal to all federal, state and local government web resources and services.